Terminal Aerodrome Forecast
Issued by NWS Bismarck, ND

Home | Current Version | Previous Version | Text Only | Print | Product List | Glossary Off
Versions: 1 2 3 4 5 6 7 8 9 10 11 12 13 14 15 16 17

000
FTUS43 KBIS 191132
TAFISN
TAF
KISN 191132Z 1912/2012 12005KT P6SM FEW080 SCT250
     FM191300 14006KT P6SM VCTS FEW070CB SCT200
      TEMPO 1914/1916 24015G25KT 6SM TSRA BKN060CB
     FM191700 18008KT P6SM FEW060 SCT200
     FM192200 01007KT P6SM FEW090 FEW250
     FM200600 09004KT P6SM SKC=

USA.gov is the U.S. government's official web portal to all federal, state and local government web resources and services.